Amarant — CQSF — position and weather

sailwx.info

Track history (hours):
 
Tides and Currents Weather Stations Pressure Air Temp Water Temp Dewpoint Dewpoint Depression Visibility Wind Speed Wind Dir Waves Ship Positions

Amarant

Last reported at 2014-Jul-22 20:33 UTC. Time now 2014-Jul-22 21:32 UTC.
Position N 54°03' E 008°08'.

Length 120 m; draft 5.2 m.

Type: Tanker. MMSI: 255623000.

Date/timePositionNaut miles runAvg speedWind from/ knotsBaromVisibWave heightAir tempDewpointWater temp
2014-Jul-22 20:33N 54°03' E 008°08'0 0.0
2014-Jul-22 19:33N 54°03' E 008°08'0 0.0
2014-Jul-22 18:33N 54°03' E 008°08'5 4.7
2014-Jul-22 17:33N 54°04' E 008°01'1514.8
2014-Jul-22 16:33N 54°08' E 007°36'1514.7
2014-Jul-22 15:32N 54°09' E 007°11'1414.3
2014-Jul-22 14:33N 54°09' E 006°47'1313.6
2014-Jul-22 13:33N 54°09' E 006°24'1313.4
2014-Jul-22 12:33N 54°07' E 006°01'1313.4
2014-Jul-22 11:33N 54°05' E 005°38'1313.3
2014-Jul-22 10:33N 54°03' E 005°16'1313.4
2014-Jul-22 09:33N 54°01' E 004°53'1211.9
2014-Jul-22 08:33N 53°60' E 004°33'1211.7
2014-Jul-22 07:31N 53°58' E 004°13'9413.5
2014-Jul-22 00:31N 53°51' E 001°33'1414.2
2014-Jul-21 23:32N 53°51' E 001°09'2814.0
2014-Jul-21 21:34N 53°40' E 000°26'1211.6
2014-Jul-21 20:33N 53°33' E 000°11'312.9
2014-Jul-21 20:18N 53°34' E 000°06'1013.4
2014-Jul-21 19:34N 53°38' W 000°10'8 7.6
2014-Jul-21 18:33N 53°44' W 000°16'1 0.5
2014-Jul-21 17:33N 53°45' W 000°15'0 0.0
2014-Jul-21 09:31N 53°45' W 000°15'1 0.7
2014-Jul-21 08:34N 53°44' W 000°17'5 4.7
2014-Jul-21 07:33N 53°40' W 000°13'8 7.9
2014-Jul-21 06:34N 53°36' W 000°02'1110.5
2014-Jul-21 05:33N 53°33' E 000°16'1111.1
2014-Jul-21 04:32N 53°32' E 000°34'1111.7
2014-Jul-21 03:34N 53°29' E 000°53'11 5.1
2014-Jul-21 01:25N 53°19' E 001°01'1310.6
2014-Jul-21 00:11N 53°13' E 001°20'711.5
2014-Jul-20 23:33N 53°08' E 001°30'1212.1
2014-Jul-20 22:33N 53°01' E 001°45'1313.0
2014-Jul-20 21:33N 52°54' E 002°04'79 9.9
2014-Jul-20 13:33N 51°44' E 003°06'1111.0
2014-Jul-20 12:32N 51°38' E 003°21'1313.4
2014-Jul-20 11:33N 51°27' E 003°32'1312.7
2014-Jul-20 10:34N 51°21' E 003°49'10 9.7
2014-Jul-20 09:33N 51°22' E 004°05'10 9.6
2014-Jul-20 08:33N 51°18' E 004°18'2 1.8
2014-Jul-20 07:33N 51°16' E 004°20'2 1.8
2014-Jul-20 06:33N 51°15' E 004°22'0 0.0
2014-Jul-20 05:33N 51°15' E 004°22'0 0.0
2014-Jul-20 04:33N 51°15' E 004°22'0 0.0
2014-Jul-20 03:33N 51°15' E 004°22'0 0.0
2014-Jul-20 02:30N 51°15' E 004°22'0 0.0
2014-Jul-20 01:33N 51°15' E 004°22'0 0.0
2014-Jul-20 00:33N 51°15' E 004°22'0 0.0
2014-Jul-19 23:33N 51°15' E 004°22'0 0.0
2014-Jul-19 22:33N 51°15' E 004°22'0 0.0
2014-Jul-19 21:33N 51°15' E 004°22'0 0.0
2014-Jul-19 20:33N 51°15' E 004°22'0 0.0
2014-Jul-19 19:33N 51°15' E 004°22'0 0.0
2014-Jul-19 18:33N 51°15' E 004°22'0 0.0
2014-Jul-19 17:33N 51°15' E 004°22'0 0.0
2014-Jul-19 16:33N 51°15' E 004°22'0 0.0
2014-Jul-19 15:33N 51°15' E 004°22'0 0.0
2014-Jul-19 14:33N 51°15' E 004°22'0 0.0
2014-Jul-19 13:33N 51°15' E 004°22'0 0.0
2014-Jul-19 12:33N 51°15' E 004°22'0 0.0
2014-Jul-19 11:33N 51°15' E 004°22'0 0.0
2014-Jul-19 10:33N 51°15' E 004°22'0 0.0
2014-Jul-19 09:33N 51°15' E 004°22'0 0.0
2014-Jul-19 08:33N 51°15' E 004°22'0 0.0
2014-Jul-19 07:33N 51°15' E 004°22'0 0.0
2014-Jul-19 06:33N 51°15' E 004°22'0 0.0
2014-Jul-19 05:33N 51°15' E 004°22'0 0.0
2014-Jul-19 04:33N 51°15' E 004°22'0 0.0
2014-Jul-19 03:33N 51°15' E 004°22'0 0.0
2014-Jul-19 02:33N 51°15' E 004°22'0 0.0
2014-Jul-19 01:33N 51°15' E 004°22'0 0.0
2014-Jul-19 00:33N 51°15' E 004°22'2 1.9
2014-Jul-18 23:34N 51°17' E 004°20'5 4.7
2014-Jul-18 22:34N 51°21' E 004°17'0 0.2
2014-Jul-18 21:34N 51°21' E 004°17'3 3.3
2014-Jul-18 20:33N 51°23' E 004°13'7 6.6
2014-Jul-18 19:34N 51°23' E 004°02'8 7.7
2014-Jul-18 18:34N 51°21' E 003°51'1211.9
2014-Jul-18 17:33N 51°26' E 003°34'1312.3
2014-Jul-18 16:28N 51°37' E 003°21'7013.1
2014-Jul-18 11:09N 52°46' E 003°42'1113.1
2014-Jul-18 10:20N 52°54' E 003°53'2312.2
2014-Jul-18 08:25N 53°09' E 004°23'1011.2
2014-Jul-18 07:33N 53°18' E 004°29'1312.7
2014-Jul-18 06:32N 53°31' E 004°36'1313.5
2014-Jul-18 05:33N 53°43' E 004°42'1413.5
2014-Jul-18 04:33N 53°57' E 004°47'1313.2
2014-Jul-18 03:33N 54°09' E 004°54'1313.3
2014-Jul-18 02:33N 54°20' E 005°06'1513.1
2014-Jul-18 01:25N 54°33' E 005°20'1312.9
2014-Jul-18 00:23N 54°44' E 005°32'5412.8
2014-Jul-17 20:10N 55°30' E 006°21'812.6
2014-Jul-17 19:33N 55°37' E 006°27'1212.4
2014-Jul-17 18:33N 55°48' E 006°39'1312.5
2014-Jul-17 17:32N 55°58' E 006°51'1412.7
2014-Jul-17 16:28N 56°10' E 007°04'1212.9
2014-Jul-17 15:33N 56°20' E 007°16'4212.7
2014-Jul-17 12:15N 56°56' E 007°52'912.5
2014-Jul-17 11:33N 57°02' E 008°05'1312.6
2014-Jul-17 10:33N 57°10' E 008°23'1212.4
2014-Jul-17 09:33N 57°17' E 008°42'1212.3
2014-Jul-17 08:33N 57°23' E 009°01'1212.2
2014-Jul-17 07:33N 57°30' E 009°20'1212.2
2014-Jul-17 06:33N 57°36' E 009°40'1211.6
2014-Jul-17 05:33N 57°42' E 009°59'1111.5
2014-Jul-17 04:33N 57°46' E 010°19'1111.0
2014-Jul-17 03:33N 57°49' E 010°39'1010.4
2014-Jul-17 02:33N 57°44' E 010°56'1111.4
2014-Jul-17 01:33N 57°36' E 011°11'1212.0
2014-Jul-17 00:33N 57°28' E 011°26'1312.6
2014-Jul-16 23:33N 57°16' E 011°34'1212.4
2014-Jul-16 22:33N 57°04' E 011°42'1212.3
2014-Jul-16 21:33N 56°52' E 011°49'1212.3
2014-Jul-16 20:33N 56°40' E 011°56'1212.6
2014-Jul-16 19:33N 56°29' E 012°03'1312.7
2014-Jul-16 18:33N 56°19' E 012°17'1212.4
2014-Jul-16 17:33N 56°09' E 012°30'1211.5
2014-Jul-16 16:33N 55°59' E 012°42'1111.4
2014-Jul-16 15:33N 55°48' E 012°43'1111.1
2014-Jul-16 14:33N 55°37' E 012°42'10 9.9
2014-Jul-16 13:33N 55°27' E 012°41'1010.1
2014-Jul-16 12:33N 55°17' E 012°46'1312.7
2014-Jul-16 11:33N 55°16' E 013°09'3912.7
2014-Jul-16 08:30N 55°14' E 014°17'1812.8
2014-Jul-16 07:04N 55°28' E 014°38'713.0
2014-Jul-16 06:33N 55°31' E 014°48'2612.8
2014-Jul-16 04:33N 55°44' E 015°27'1312.7
2014-Jul-16 03:33N 55°50' E 015°47'1312.6
2014-Jul-16 02:33N 55°57' E 016°06'1212.3
2014-Jul-16 01:33N 56°03' E 016°25'5412.3
2014-Jul-15 21:11N 56°52' E 017°07'813.3
2014-Jul-15 20:33N 56°60' E 017°11'1313.3
2014-Jul-15 19:33N 57°13' E 017°16'1313.1
2014-Jul-15 18:33N 57°25' E 017°22'1312.8
2014-Jul-15 17:33N 57°38' E 017°27'  
2014-Jul-13 06:22N 57°30' E 017°24'1011.9
2014-Jul-13 05:33N 57°21' E 017°20'1212.3
2014-Jul-13 04:33N 57°09' E 017°15'1312.2
2014-Jul-13 03:29N 56°56' E 017°09'  
Track history (hours):
 
Tides and Currents Weather Stations Pressure Air Temp Water Temp Dewpoint Dewpoint Depression Visibility Wind Speed Wind Dir Waves Ship Positions

Amarant

Last reported at 2014-Jul-22 20:33 UTC. Time now 2014-Jul-22 21:32 UTC.
Position N 54°03' E 008°08'.

Length 120 m; draft 5.2 m.

Type: Tanker. MMSI: 255623000.

Date/timePositionNaut miles runAvg speedWind from/ knotsBaromVisibWave heightAir tempDewpointWater temp
2014-Jul-22 20:33N 54°03' E 008°08'0 0.0
2014-Jul-22 19:33N 54°03' E 008°08'0 0.0
2014-Jul-22 18:33N 54°03' E 008°08'5 4.7
2014-Jul-22 17:33N 54°04' E 008°01'1514.8
2014-Jul-22 16:33N 54°08' E 007°36'1514.7
2014-Jul-22 15:32N 54°09' E 007°11'1414.3
2014-Jul-22 14:33N 54°09' E 006°47'1313.6
2014-Jul-22 13:33N 54°09' E 006°24'1313.4
2014-Jul-22 12:33N 54°07' E 006°01'1313.4
2014-Jul-22 11:33N 54°05' E 005°38'1313.3
2014-Jul-22 10:33N 54°03' E 005°16'1313.4
2014-Jul-22 09:33N 54°01' E 004°53'1211.9
2014-Jul-22 08:33N 53°60' E 004°33'1211.7
2014-Jul-22 07:31N 53°58' E 004°13'9413.5
2014-Jul-22 00:31N 53°51' E 001°33'1414.2
2014-Jul-21 23:32N 53°51' E 001°09'2814.0
2014-Jul-21 21:34N 53°40' E 000°26'1211.6
2014-Jul-21 20:33N 53°33' E 000°11'312.9
2014-Jul-21 20:18N 53°34' E 000°06'1013.4
2014-Jul-21 19:34N 53°38' W 000°10'8 7.6
2014-Jul-21 18:33N 53°44' W 000°16'1 0.5
2014-Jul-21 17:33N 53°45' W 000°15'0 0.0
2014-Jul-21 09:31N 53°45' W 000°15'1 0.7
2014-Jul-21 08:34N 53°44' W 000°17'5 4.7
2014-Jul-21 07:33N 53°40' W 000°13'8 7.9
2014-Jul-21 06:34N 53°36' W 000°02'1110.5
2014-Jul-21 05:33N 53°33' E 000°16'1111.1
2014-Jul-21 04:32N 53°32' E 000°34'1111.7
2014-Jul-21 03:34N 53°29' E 000°53'11 5.1
2014-Jul-21 01:25N 53°19' E 001°01'1310.6
2014-Jul-21 00:11N 53°13' E 001°20'711.5
2014-Jul-20 23:33N 53°08' E 001°30'1212.1
2014-Jul-20 22:33N 53°01' E 001°45'1313.0
2014-Jul-20 21:33N 52°54' E 002°04'79 9.9
2014-Jul-20 13:33N 51°44' E 003°06'1111.0
2014-Jul-20 12:32N 51°38' E 003°21'1313.4
2014-Jul-20 11:33N 51°27' E 003°32'1312.7
2014-Jul-20 10:34N 51°21' E 003°49'10 9.7
2014-Jul-20 09:33N 51°22' E 004°05'10 9.6
2014-Jul-20 08:33N 51°18' E 004°18'2 1.8
2014-Jul-20 07:33N 51°16' E 004°20'2 1.8
2014-Jul-20 06:33N 51°15' E 004°22'0 0.0
2014-Jul-20 05:33N 51°15' E 004°22'0 0.0
2014-Jul-20 04:33N 51°15' E 004°22'0 0.0
2014-Jul-20 03:33N 51°15' E 004°22'0 0.0
2014-Jul-20 02:30N 51°15' E 004°22'0 0.0
2014-Jul-20 01:33N 51°15' E 004°22'0 0.0
2014-Jul-20 00:33N 51°15' E 004°22'0 0.0
2014-Jul-19 23:33N 51°15' E 004°22'0 0.0
2014-Jul-19 22:33N 51°15' E 004°22'0 0.0
2014-Jul-19 21:33N 51°15' E 004°22'0 0.0
2014-Jul-19 20:33N 51°15' E 004°22'0 0.0
2014-Jul-19 19:33N 51°15' E 004°22'0 0.0
2014-Jul-19 18:33N 51°15' E 004°22'0 0.0
2014-Jul-19 17:33N 51°15' E 004°22'0 0.0
2014-Jul-19 16:33N 51°15' E 004°22'0 0.0
2014-Jul-19 15:33N 51°15' E 004°22'0 0.0
2014-Jul-19 14:33N 51°15' E 004°22'0 0.0
2014-Jul-19 13:33N 51°15' E 004°22'0 0.0
2014-Jul-19 12:33N 51°15' E 004°22'0 0.0
2014-Jul-19 11:33N 51°15' E 004°22'0 0.0
2014-Jul-19 10:33N 51°15' E 004°22'0 0.0
2014-Jul-19 09:33N 51°15' E 004°22'0 0.0
2014-Jul-19 08:33N 51°15' E 004°22'0 0.0
2014-Jul-19 07:33N 51°15' E 004°22'0 0.0
2014-Jul-19 06:33N 51°15' E 004°22'0 0.0
2014-Jul-19 05:33N 51°15' E 004°22'0 0.0
2014-Jul-19 04:33N 51°15' E 004°22'0 0.0
2014-Jul-19 03:33N 51°15' E 004°22'0 0.0
2014-Jul-19 02:33N 51°15' E 004°22'0 0.0
2014-Jul-19 01:33N 51°15' E 004°22'0 0.0
2014-Jul-19 00:33N 51°15' E 004°22'2 1.9
2014-Jul-18 23:34N 51°17' E 004°20'5 4.7
2014-Jul-18 22:34N 51°21' E 004°17'0 0.2
2014-Jul-18 21:34N 51°21' E 004°17'3 3.3
2014-Jul-18 20:33N 51°23' E 004°13'7 6.6
2014-Jul-18 19:34N 51°23' E 004°02'8 7.7
2014-Jul-18 18:34N 51°21' E 003°51'1211.9
2014-Jul-18 17:33N 51°26' E 003°34'1312.3
2014-Jul-18 16:28N 51°37' E 003°21'7013.1
2014-Jul-18 11:09N 52°46' E 003°42'1113.1
2014-Jul-18 10:20N 52°54' E 003°53'2312.2
2014-Jul-18 08:25N 53°09' E 004°23'1011.2
2014-Jul-18 07:33N 53°18' E 004°29'1312.7
2014-Jul-18 06:32N 53°31' E 004°36'1313.5
2014-Jul-18 05:33N 53°43' E 004°42'1413.5
2014-Jul-18 04:33N 53°57' E 004°47'1313.2
2014-Jul-18 03:33N 54°09' E 004°54'1313.3
2014-Jul-18 02:33N 54°20' E 005°06'1513.1
2014-Jul-18 01:25N 54°33' E 005°20'1312.9
2014-Jul-18 00:23N 54°44' E 005°32'5412.8
2014-Jul-17 20:10N 55°30' E 006°21'812.6
2014-Jul-17 19:33N 55°37' E 006°27'1212.4
2014-Jul-17 18:33N 55°48' E 006°39'1312.5
2014-Jul-17 17:32N 55°58' E 006°51'1412.7
2014-Jul-17 16:28N 56°10' E 007°04'1212.9
2014-Jul-17 15:33N 56°20' E 007°16'4212.7
2014-Jul-17 12:15N 56°56' E 007°52'912.5
2014-Jul-17 11:33N 57°02' E 008°05'1312.6
2014-Jul-17 10:33N 57°10' E 008°23'1212.4
2014-Jul-17 09:33N 57°17' E 008°42'1212.3
2014-Jul-17 08:33N 57°23' E 009°01'1212.2
2014-Jul-17 07:33N 57°30' E 009°20'1212.2
2014-Jul-17 06:33N 57°36' E 009°40'1211.6
2014-Jul-17 05:33N 57°42' E 009°59'1111.5
2014-Jul-17 04:33N 57°46' E 010°19'1111.0
2014-Jul-17 03:33N 57°49' E 010°39'1010.4
2014-Jul-17 02:33N 57°44' E 010°56'1111.4
2014-Jul-17 01:33N 57°36' E 011°11'1212.0
2014-Jul-17 00:33N 57°28' E 011°26'1312.6
2014-Jul-16 23:33N 57°16' E 011°34'1212.4
2014-Jul-16 22:33N 57°04' E 011°42'1212.3
2014-Jul-16 21:33N 56°52' E 011°49'1212.3
2014-Jul-16 20:33N 56°40' E 011°56'1212.6
2014-Jul-16 19:33N 56°29' E 012°03'1312.7
2014-Jul-16 18:33N 56°19' E 012°17'1212.4
2014-Jul-16 17:33N 56°09' E 012°30'1211.5
2014-Jul-16 16:33N 55°59' E 012°42'1111.4
2014-Jul-16 15:33N 55°48' E 012°43'1111.1
2014-Jul-16 14:33N 55°37' E 012°42'10 9.9
2014-Jul-16 13:33N 55°27' E 012°41'1010.1
2014-Jul-16 12:33N 55°17' E 012°46'1312.7
2014-Jul-16 11:33N 55°16' E 013°09'3912.7
2014-Jul-16 08:30N 55°14' E 014°17'1812.8
2014-Jul-16 07:04N 55°28' E 014°38'713.0
2014-Jul-16 06:33N 55°31' E 014°48'2612.8
2014-Jul-16 04:33N 55°44' E 015°27'1312.7
2014-Jul-16 03:33N 55°50' E 015°47'1312.6
2014-Jul-16 02:33N 55°57' E 016°06'1212.3
2014-Jul-16 01:33N 56°03' E 016°25'5412.3
2014-Jul-15 21:11N 56°52' E 017°07'813.3
2014-Jul-15 20:33N 56°60' E 017°11'1313.3
2014-Jul-15 19:33N 57°13' E 017°16'1313.1
2014-Jul-15 18:33N 57°25' E 017°22'1312.8
2014-Jul-15 17:33N 57°38' E 017°27'  
2014-Jul-13 06:22N 57°30' E 017°24'1011.9
2014-Jul-13 05:33N 57°21' E 017°20'1212.3
2014-Jul-13 04:33N 57°09' E 017°15'1312.2
2014-Jul-13 03:29N 56°56' E 017°09'  

Dump ship's entire track history